createdAt,value
2019-01-02T00:00:17.989Z,4.30
2019-01-02T00:02:47.560Z,4.30
2019-01-02T00:05:16.961Z,4.30
2019-01-02T00:07:46.061Z,4.30
2019-01-02T00:10:15.181Z,4.30
2019-01-02T00:12:44.337Z,4.30
2019-01-02T00:15:13.945Z,4.20
2019-01-02T00:17:43.053Z,4.30
2019-01-02T00:20:14.085Z,4.30
2019-01-02T00:22:43.197Z,4.30
2019-01-02T00:25:12.314Z,4.30
2019-01-02T00:27:41.826Z,4.30
2019-01-02T00:30:11.034Z,4.30
2019-01-02T00:32:40.537Z,4.30
2019-01-02T00:35:09.710Z,4.30
2019-01-02T00:37:39.333Z,4.20
2019-01-02T00:40:09.769Z,4.20
2019-01-02T00:42:39.388Z,4.10
2019-01-02T00:45:08.993Z,4.00
2019-01-02T00:47:38.489Z,4.00
2019-01-02T00:50:09.984Z,3.90
2019-01-02T00:52:39.563Z,3.90
2019-01-02T00:55:09.177Z,3.80
2019-01-02T00:57:38.685Z,3.80
2019-01-02T01:00:20.399Z,3.80
2019-01-02T01:02:49.566Z,3.70
2019-01-02T01:05:18.761Z,3.70
2019-01-02T01:07:48.026Z,3.70
2019-01-02T01:10:18.225Z,3.70
2019-01-02T01:12:47.846Z,3.60
2019-01-02T01:15:17.121Z,3.50
2019-01-02T01:17:46.261Z,3.40
2019-01-02T01:20:17.889Z,3.40
2019-01-02T01:22:47.001Z,3.30
2019-01-02T01:25:16.140Z,3.10
2019-01-02T01:27:45.301Z,3.10
2019-01-02T01:30:14.895Z,3.00
2019-01-02T01:32:44.009Z,3.00
2019-01-02T01:35:14.963Z,3.00
2019-01-02T01:37:53.994Z,3.00
2019-01-02T01:40:23.291Z,2.90
2019-01-02T01:42:52.412Z,2.80
2019-01-02T01:45:21.937Z,2.80
2019-01-02T01:47:51.109Z,2.80
2019-01-02T01:50:20.689Z,2.80
2019-01-02T01:52:49.876Z,2.80
2019-01-02T01:55:19.269Z,2.70
2019-01-02T01:57:48.962Z,2.70
2019-01-02T02:00:20.185Z,2.70
2019-01-02T02:02:49.714Z,2.70
2019-01-02T02:05:19.281Z,2.60
2019-01-02T02:07:48.401Z,2.70
2019-01-02T02:10:18.338Z,2.60
2019-01-02T02:12:47.461Z,2.60
2019-01-02T02:15:16.593Z,2.50
2019-01-02T02:17:46.081Z,2.50
2019-01-02T02:20:15.757Z,2.50
2019-01-02T02:22:44.874Z,2.40
2019-01-02T02:25:18.896Z,2.30
2019-01-02T02:27:48.080Z,2.30
2019-01-02T02:30:17.713Z,2.40
2019-01-02T02:32:48.424Z,2.30
2019-01-02T02:35:18.002Z,2.30
2019-01-02T02:37:47.254Z,2.30
2019-01-02T02:40:16.534Z,2.30
2019-01-02T02:42:45.669Z,2.30
2019-01-02T02:45:15.445Z,2.40
2019-01-02T02:47:45.039Z,2.40
2019-01-02T02:50:17.845Z,2.30
2019-01-02T02:52:47.661Z,2.40
2019-01-02T02:55:20.433Z,2.40
2019-01-02T02:57:49.637Z,2.40
2019-01-02T03:00:18.813Z,2.40
2019-01-02T03:02:47.938Z,2.30
2019-01-02T03:05:17.377Z,2.30
2019-01-02T03:07:46.970Z,2.20
2019-01-02T03:10:17.175Z,2.20
2019-01-02T03:12:46.736Z,2.30
2019-01-02T03:15:16.282Z,2.30
2019-01-02T03:17:45.393Z,2.30
2019-01-02T03:20:15.637Z,2.20
2019-01-02T03:22:45.813Z,2.20
2019-01-02T03:25:15.425Z,2.20
2019-01-02T03:27:44.917Z,2.30
2019-01-02T03:30:16.882Z,2.30
2019-01-02T03:32:46.474Z,2.20
2019-01-02T03:35:16.186Z,2.20
2019-01-02T03:37:45.307Z,2.30
2019-01-02T03:40:14.413Z,2.20
2019-01-02T03:42:43.889Z,2.20
2019-01-02T03:45:15.541Z,2.10
2019-01-02T03:47:44.645Z,2.20
2019-01-02T03:50:15.925Z,2.20
2019-01-02T03:52:45.005Z,2.20
2019-01-02T03:55:14.178Z,2.20
2019-01-02T03:57:43.277Z,2.20
2019-01-02T04:00:14.695Z,2.20
2019-01-02T04:02:43.889Z,2.20
2019-01-02T04:05:14.642Z,2.20
2019-01-02T04:07:46.871Z,2.20
2019-01-02T04:10:15.965Z,2.20
2019-01-02T04:12:45.121Z,2.20
2019-01-02T04:15:14.294Z,2.20
2019-01-02T04:17:43.421Z,2.20
2019-01-02T04:20:12.533Z,2.20
2019-01-02T04:22:41.685Z,2.10
2019-01-02T04:25:10.836Z,2.10
2019-01-02T04:27:39.937Z,2.10
2019-01-02T04:30:11.753Z,2.10
2019-01-02T04:32:40.851Z,2.10
2019-01-02T04:35:10.001Z,2.10
2019-01-02T04:37:39.118Z,2.20
2019-01-02T04:40:10.646Z,2.20
2019-01-02T04:42:39.925Z,2.30
2019-01-02T04:45:10.025Z,2.30
2019-01-02T04:47:39.337Z,2.40
2019-01-02T04:50:10.877Z,2.40
2019-01-02T04:52:40.007Z,2.40
2019-01-02T04:55:09.143Z,2.40
2019-01-02T04:57:38.517Z,2.40
2019-01-02T05:00:16.077Z,2.50
2019-01-02T05:02:45.214Z,2.50
2019-01-02T05:05:14.344Z,2.50
2019-01-02T05:07:43.508Z,2.50
2019-01-02T05:10:14.131Z,2.50
2019-01-02T05:12:43.326Z,2.50
2019-01-02T05:15:12.494Z,2.50
2019-01-02T05:17:41.601Z,2.60
2019-01-02T05:20:13.191Z,2.60
2019-01-02T05:22:42.335Z,2.60
2019-01-02T05:25:11.822Z,2.60
2019-01-02T05:27:40.939Z,2.70
2019-01-02T05:30:18.456Z,2.70
2019-01-02T05:32:47.569Z,2.70
2019-01-02T05:35:16.723Z,2.70
2019-01-02T05:37:46.229Z,2.70
2019-01-02T05:40:17.974Z,2.70
2019-01-02T05:42:47.098Z,2.70
2019-01-02T05:45:16.497Z,2.70
2019-01-02T05:47:45.617Z,2.70
2019-01-02T05:50:14.717Z,2.80
2019-01-02T05:52:43.881Z,2.70
2019-01-02T05:55:12.994Z,2.70
2019-01-02T05:57:42.101Z,2.70
2019-01-02T06:00:13.237Z,2.70
2019-01-02T06:02:42.373Z,2.70
2019-01-02T06:05:11.516Z,2.70
2019-01-02T06:07:40.669Z,2.70
2019-01-02T06:10:12.429Z,2.70
2019-01-02T06:12:41.588Z,2.70
2019-01-02T06:15:13.312Z,2.70
2019-01-02T06:17:42.433Z,2.70
2019-01-02T06:20:13.708Z,2.60
2019-01-02T06:22:42.857Z,2.70
2019-01-02T06:25:11.993Z,2.70
2019-01-02T06:27:41.106Z,2.80
2019-01-02T06:30:12.630Z,2.80
2019-01-02T06:32:41.828Z,2.80
2019-01-02T06:35:11.313Z,2.80
2019-01-02T06:37:40.809Z,2.80
2019-01-02T06:40:12.038Z,2.80
2019-01-02T06:42:41.153Z,2.80
2019-01-02T06:45:12.601Z,2.70
2019-01-02T06:47:41.738Z,2.70
2019-01-02T06:50:30.231Z,2.70
2019-01-02T06:52:59.362Z,2.70
2019-01-02T06:55:28.533Z,2.70
2019-01-02T06:57:57.678Z,2.70
2019-01-02T07:00:47.029Z,2.70
2019-01-02T07:03:16.453Z,2.80
2019-01-02T07:05:45.697Z,2.80
2019-01-02T07:08:14.942Z,2.80
2019-01-02T07:10:44.365Z,2.80
2019-01-02T07:13:13.497Z,2.80
2019-01-02T07:15:42.605Z,2.80
2019-01-02T07:18:11.980Z,2.80
2019-01-02T07:20:41.163Z,2.80
2019-01-02T07:23:10.289Z,2.80
2019-01-02T07:25:39.415Z,2.80
2019-01-02T07:34:44.799Z,2.80
2019-01-02T07:34:46.142Z,2.90
2019-01-02T07:37:38.864Z,2.70
2019-01-02T07:44:14.216Z,2.70
2019-01-02T07:47:29.069Z,2.70
2019-01-02T07:50:33.074Z,2.80
2019-01-02T07:53:22.276Z,2.80
2019-01-02T07:56:20.494Z,2.80
2019-01-02T07:59:28.088Z,2.80
2019-01-02T08:02:27.046Z,2.80
2019-01-02T08:05:08.161Z,2.80
2019-01-02T08:08:04.805Z,2.70
2019-01-02T08:11:12.197Z,2.70
2019-01-02T08:14:31.282Z,2.70
2019-01-02T08:17:32.008Z,2.80
2019-01-02T08:20:40.274Z,2.80
2019-01-02T08:23:34.469Z,2.80
2019-01-02T08:26:59.894Z,2.80
2019-01-02T08:29:45.888Z,2.80
2019-01-02T08:33:07.273Z,2.80
2019-01-02T08:36:28.603Z,2.90
2019-01-02T08:39:34.657Z,2.90
2019-01-02T08:42:46.048Z,3.00
2019-01-02T08:45:48.453Z,3.00
2019-01-02T08:48:46.304Z,3.00
2019-01-02T08:51:52.413Z,2.90
2019-01-02T08:55:04.725Z,3.00
2019-01-02T08:58:18.249Z,3.00
2019-01-02T09:01:28.460Z,3.00
2019-01-02T09:04:23.684Z,3.00
2019-01-02T09:07:23.162Z,3.00
2019-01-02T09:10:20.174Z,3.00
2019-01-02T09:13:14.620Z,3.10
2019-01-02T09:16:24.453Z,3.10
2019-01-02T09:19:33.422Z,3.20
2019-01-02T09:23:05.156Z,3.20
2019-01-02T09:26:14.206Z,3.20
2019-01-02T09:29:42.787Z,3.10
2019-01-02T09:32:48.981Z,3.10
2019-01-02T09:36:01.398Z,3.10
2019-01-02T09:39:16.802Z,3.00
2019-01-02T09:42:24.757Z,2.90
2019-01-02T09:45:31.145Z,2.90
2019-01-02T09:48:27.290Z,2.80
2019-01-02T09:51:24.082Z,2.70
2019-01-02T09:54:39.278Z,2.70
2019-01-02T09:57:48.473Z,2.80
2019-01-02T10:00:49.054Z,2.80
2019-01-02T10:04:14.393Z,2.90
2019-01-02T10:07:24.070Z,2.90
2019-01-02T10:10:27.353Z,2.90
2019-01-02T10:13:18.693Z,2.90
2019-01-02T10:16:27.886Z,2.90
2019-01-02T10:20:02.354Z,2.90
2019-01-02T10:23:04.748Z,2.90
2019-01-02T10:26:11.442Z,2.90
2019-01-02T10:29:06.806Z,2.90
2019-01-02T10:32:25.943Z,2.90
2019-01-02T10:35:31.835Z,3.00
2019-01-02T10:38:25.264Z,2.80
2019-01-02T10:41:31.038Z,2.80
2019-01-02T10:44:30.108Z,2.80
2019-01-02T10:47:16.837Z,2.80
2019-01-02T10:50:20.281Z,2.80
2019-01-02T10:53:33.385Z,2.80
2019-01-02T10:56:53.030Z,2.80
2019-01-02T11:00:07.366Z,2.80
2019-01-02T11:03:26.587Z,2.80
2019-01-02T11:06:23.129Z,2.80
2019-01-02T11:09:21.623Z,2.80
2019-01-02T11:12:20.309Z,2.80
2019-01-02T11:15:20.766Z,2.90
2019-01-02T11:18:43.153Z,3.00
2019-01-02T11:22:11.717Z,2.90
2019-01-02T11:25:35.717Z,2.80
2019-01-02T11:28:57.424Z,2.60
2019-01-02T11:32:03.192Z,2.60
2019-01-02T11:35:08.406Z,2.70
2019-01-02T11:38:09.165Z,2.70
2019-01-02T11:41:09.859Z,2.70
2019-01-02T11:44:25.257Z,2.70
2019-01-02T11:46:54.377Z,2.70
2019-01-02T11:49:23.493Z,2.60
2019-01-02T11:51:52.660Z,2.70
2019-01-02T11:54:21.771Z,2.70
2019-01-02T11:56:50.961Z,2.80
2019-01-02T11:59:20.074Z,2.70
2019-01-02T12:01:49.249Z,2.70
2019-01-02T12:04:18.513Z,2.70
2019-01-02T12:06:47.662Z,2.70
2019-01-02T12:09:16.970Z,2.80
2019-01-02T12:11:46.194Z,2.90
2019-01-02T12:14:15.320Z,2.80
2019-01-02T12:16:44.439Z,2.80
2019-01-02T12:19:13.695Z,2.80
2019-01-02T12:21:42.813Z,2.80
2019-01-02T12:24:11.966Z,2.60
2019-01-02T12:26:41.117Z,2.60
2019-01-02T12:29:10.249Z,2.60
2019-01-02T12:31:39.349Z,2.60
2019-01-02T12:34:08.557Z,2.60
2019-01-02T12:36:37.772Z,2.50
2019-01-02T12:39:07.610Z,2.50
2019-01-02T12:41:36.753Z,2.60
2019-01-02T12:44:05.888Z,2.70
2019-01-02T12:46:35.049Z,2.70
2019-01-02T12:49:04.414Z,2.70
2019-01-02T12:51:33.777Z,2.70
2019-01-02T12:54:02.935Z,2.60
2019-01-02T12:56:32.121Z,2.60
2019-01-02T12:59:01.294Z,2.60
2019-01-02T13:01:49.881Z,2.50
2019-01-02T13:04:49.130Z,2.50
2019-01-02T13:08:11.823Z,2.40
2019-01-02T13:11:10.726Z,2.40
2019-01-02T13:14:16.657Z,2.50
2019-01-02T13:17:29.881Z,2.40
2019-01-02T13:20:41.562Z,2.50
2019-01-02T13:23:44.353Z,2.50
2019-01-02T13:26:19.417Z,2.50
2019-01-02T13:29:08.159Z,2.60
2019-01-02T13:32:10.584Z,2.60
2019-01-02T13:35:06.301Z,2.60
2019-01-02T13:38:21.737Z,2.60
2019-01-02T13:41:46.905Z,2.60
2019-01-02T13:44:36.732Z,2.70
2019-01-02T13:47:52.645Z,2.70
2019-01-02T13:50:55.985Z,2.70
2019-01-02T13:53:25.085Z,2.60
2019-01-02T13:55:54.209Z,2.60
2019-01-02T13:58:23.431Z,2.50
2019-01-02T14:00:52.731Z,2.50
2019-01-02T14:03:21.837Z,2.40
2019-01-02T14:05:51.489Z,2.40
2019-01-02T14:08:20.618Z,2.40
2019-01-02T14:10:49.856Z,2.50
2019-01-02T14:13:19.017Z,2.40
2019-01-02T14:15:48.137Z,2.50
2019-01-02T14:18:17.270Z,2.40
2019-01-02T14:20:46.397Z,2.40
2019-01-02T14:23:15.553Z,2.40
2019-01-02T14:25:44.665Z,2.40
2019-01-02T14:28:14.205Z,2.40
2019-01-02T14:30:43.314Z,2.30
2019-01-02T14:33:12.429Z,2.30
2019-01-02T14:35:41.705Z,2.30
2019-01-02T14:38:10.879Z,2.30
2019-01-02T14:40:39.996Z,2.30
2019-01-02T14:43:09.317Z,2.30
2019-01-02T14:45:38.429Z,2.30
2019-01-02T14:48:07.546Z,2.40
2019-01-02T14:50:36.730Z,2.30
2019-01-02T14:53:05.856Z,2.20
2019-01-02T14:55:35.325Z,2.10
2019-01-02T14:58:04.454Z,2.10
2019-01-02T15:00:33.577Z,2.20
2019-01-02T15:03:03.028Z,2.20
2019-01-02T15:05:32.160Z,2.20
2019-01-02T15:08:01.401Z,2.20
2019-01-02T15:10:30.538Z,2.10
2019-01-02T15:12:59.661Z,2.20
2019-01-02T15:15:28.793Z,2.10
2019-01-02T15:17:58.242Z,2.00
2019-01-02T15:20:27.577Z,1.90
2019-01-02T15:22:56.698Z,1.80
2019-01-02T15:25:25.849Z,1.70
2019-01-02T15:27:57.560Z,1.80
2019-01-02T15:30:27.113Z,1.70
2019-01-02T15:32:56.245Z,1.70
2019-01-02T15:35:25.366Z,1.70
2019-01-02T15:37:54.545Z,1.70
2019-01-02T15:40:23.677Z,1.80
2019-01-02T15:42:52.773Z,1.80
2019-01-02T15:45:21.886Z,1.80
2019-01-02T15:47:51.299Z,1.80
2019-01-02T15:50:20.486Z,1.70
2019-01-02T15:52:49.677Z,1.80
2019-01-02T15:55:18.813Z,1.80
2019-01-02T15:57:47.947Z,1.80
2019-01-02T16:00:17.149Z,1.80
2019-01-02T16:02:46.262Z,1.80
2019-01-02T16:05:15.421Z,1.80
2019-01-02T16:07:44.549Z,1.70
2019-01-02T16:10:13.671Z,1.70
2019-01-02T16:12:47.373Z,1.70
2019-01-02T16:15:14.062Z,1.60
2019-01-02T16:17:43.245Z,1.70
2019-01-02T16:20:12.686Z,1.60
2019-01-02T16:22:41.807Z,1.70
2019-01-02T16:25:11.181Z,1.70
2019-01-02T16:27:40.313Z,1.70
2019-01-02T16:30:10.432Z,1.70
2019-01-02T16:32:39.581Z,1.70
2019-01-02T16:35:08.783Z,1.70
2019-01-02T16:37:37.929Z,1.80
2019-01-02T16:40:10.071Z,1.90
2019-01-02T16:42:39.198Z,1.80
2019-01-02T16:45:08.582Z,1.80
2019-01-02T16:47:38.010Z,1.70
2019-01-02T16:50:08.018Z,1.80
2019-01-02T16:52:37.122Z,1.70
2019-01-02T16:55:06.402Z,1.80
2019-01-02T16:57:35.657Z,1.70
2019-01-02T17:00:05.822Z,1.70
2019-01-02T17:02:34.979Z,1.70
2019-01-02T17:05:04.233Z,1.70
2019-01-02T17:07:33.356Z,1.70
2019-01-02T17:10:02.498Z,1.70
2019-01-02T17:12:31.674Z,1.60
2019-01-02T17:15:00.800Z,1.60
2019-01-02T17:17:29.937Z,1.70
2019-01-02T17:19:59.386Z,1.70
2019-01-02T17:22:28.502Z,1.60
2019-01-02T17:24:57.625Z,1.60
2019-01-02T17:27:26.921Z,1.60
2019-01-02T17:29:56.065Z,1.50
2019-01-02T17:32:25.195Z,1.50
2019-01-02T17:34:54.381Z,1.50
2019-01-02T17:37:23.617Z,1.50
2019-01-02T17:39:52.812Z,1.50
2019-01-02T17:42:21.952Z,1.40
2019-01-02T17:44:51.397Z,1.40
2019-01-02T17:47:20.554Z,1.40
2019-01-02T17:49:49.678Z,1.20
2019-01-02T17:52:18.824Z,1.10
2019-01-02T17:54:47.981Z,1.10
2019-01-02T17:57:17.174Z,1.10
2019-01-02T17:59:46.367Z,1.10
2019-01-02T18:02:15.598Z,1.20
2019-01-02T18:04:44.745Z,1.10
2019-01-02T18:07:13.862Z,1.10
2019-01-02T18:09:43.030Z,1.20
2019-01-02T18:12:12.270Z,1.00
2019-01-02T18:14:41.650Z,1.00
2019-01-02T18:17:10.769Z,1.00
2019-01-02T18:19:39.889Z,1.00
2019-01-02T18:22:09.041Z,1.00
2019-01-02T18:24:38.150Z,1.00
2019-01-02T18:27:07.652Z,1.00
2019-01-02T18:29:36.834Z,0.90
2019-01-02T18:32:05.982Z,1.00
2019-01-02T18:34:35.116Z,0.90
2019-01-02T18:37:04.321Z,1.00
2019-01-02T18:39:33.445Z,0.90
2019-01-02T18:42:02.765Z,0.90
2019-01-02T18:44:31.908Z,0.90
2019-01-02T18:47:01.030Z,1.00
2019-01-02T18:49:30.429Z,1.10
2019-01-02T18:51:59.557Z,1.00
2019-01-02T18:54:28.681Z,1.00
2019-01-02T18:56:57.799Z,1.00
2019-01-02T18:59:27.013Z,1.00
2019-01-02T19:01:56.133Z,1.00
2019-01-02T19:04:25.262Z,1.00
2019-01-02T19:06:54.401Z,1.10
2019-01-02T19:09:23.535Z,1.10
2019-01-02T19:11:53.208Z,1.10
2019-01-02T19:14:22.548Z,1.10
2019-01-02T19:16:51.691Z,1.20
2019-01-02T19:19:20.793Z,1.20
2019-01-02T19:21:50.138Z,1.30
2019-01-02T19:24:19.318Z,1.20
2019-01-02T19:26:48.425Z,1.20
2019-01-02T19:29:17.769Z,1.20
2019-01-02T19:31:46.890Z,1.20
2019-01-02T19:34:16.029Z,1.20
2019-01-02T19:36:45.466Z,1.20
2019-01-02T19:39:14.678Z,1.30
2019-01-02T19:41:43.818Z,1.20
2019-01-02T19:44:12.973Z,1.20
2019-01-02T19:46:42.093Z,1.20
2019-01-02T19:49:11.205Z,1.20
2019-01-02T19:51:40.697Z,1.20
2019-01-02T19:54:09.825Z,1.20
2019-01-02T19:56:39.029Z,1.20
2019-01-02T19:59:08.598Z,1.10
2019-01-02T20:01:37.765Z,1.10
2019-01-02T20:04:06.910Z,1.20
2019-01-02T20:06:36.310Z,1.20
2019-01-02T20:09:07.745Z,1.20
2019-01-02T20:11:36.882Z,1.10
2019-01-02T20:14:06.373Z,1.10
2019-01-02T20:16:35.485Z,1.10
2019-01-02T20:19:04.634Z,1.10
2019-01-02T20:21:34.094Z,1.10
2019-01-02T20:24:03.197Z,1.10
2019-01-02T20:26:32.304Z,1.00
2019-01-02T20:29:01.470Z,0.90
2019-01-02T20:31:30.598Z,1.00
2019-01-02T20:33:59.723Z,1.00
2019-01-02T20:36:29.094Z,0.90
2019-01-02T20:38:58.210Z,0.90
2019-01-02T20:41:27.337Z,1.00
2019-01-02T20:43:56.538Z,1.00
2019-01-02T20:46:26.016Z,0.90
2019-01-02T20:48:55.134Z,0.90
2019-01-02T20:51:24.237Z,1.00
2019-01-02T20:53:53.368Z,1.00
2019-01-02T20:56:22.482Z,1.00
2019-01-02T20:58:51.630Z,0.90
2019-01-02T21:01:20.761Z,1.00
2019-01-02T21:03:49.890Z,1.00
2019-01-02T21:06:19.074Z,1.00
2019-01-02T21:08:48.189Z,1.00
2019-01-02T21:11:17.317Z,1.00
2019-01-02T21:13:46.475Z,0.90
2019-01-02T21:16:15.589Z,0.90
2019-01-02T21:18:44.716Z,0.90
2019-01-02T21:21:13.873Z,0.80
2019-01-02T21:23:43.058Z,0.90
2019-01-02T21:26:12.165Z,0.90
2019-01-02T21:28:41.314Z,0.90
2019-01-02T21:31:10.498Z,0.90
2019-01-02T21:33:39.914Z,0.90
2019-01-02T21:36:09.086Z,1.00
2019-01-02T21:38:38.208Z,1.00
2019-01-02T21:41:07.325Z,0.90
2019-01-02T21:43:36.829Z,1.00
2019-01-02T21:46:05.971Z,1.10
2019-01-02T21:48:41.147Z,1.00
2019-01-02T21:51:06.046Z,1.00
2019-01-02T21:53:35.190Z,0.90
2019-01-02T21:56:04.298Z,1.00
2019-01-02T21:58:33.475Z,0.90
2019-01-02T22:01:02.634Z,0.80
2019-01-02T22:03:31.842Z,0.90
2019-01-02T22:06:01.025Z,0.80
2019-01-02T22:08:30.384Z,0.70
2019-01-02T22:10:59.493Z,0.70
2019-01-02T22:13:28.676Z,0.70
2019-01-02T22:15:57.830Z,0.70
2019-01-02T22:18:26.946Z,0.70
2019-01-02T22:20:56.062Z,0.80
2019-01-02T22:23:25.393Z,0.70
2019-01-02T22:25:54.509Z,0.60
2019-01-02T22:28:23.634Z,0.50
2019-01-02T22:30:52.770Z,0.40
2019-01-02T22:33:22.218Z,0.40
2019-01-02T22:35:51.360Z,0.40
2019-01-02T22:38:20.472Z,0.40
2019-01-02T22:40:49.601Z,0.40
2019-01-02T22:43:18.846Z,0.40
2019-01-02T22:45:47.955Z,0.40
2019-01-02T22:48:17.102Z,0.50
2019-01-02T22:50:46.237Z,0.50
2019-01-02T22:53:15.359Z,0.50
2019-01-02T22:55:44.537Z,0.50
2019-01-02T22:58:13.673Z,0.50
2019-01-02T23:01:05.998Z,0.50
2019-01-02T23:03:53.001Z,0.50
2019-01-02T23:06:59.622Z,0.50
2019-01-02T23:09:40.442Z,0.40
2019-01-02T23:12:31.531Z,0.40
2019-01-02T23:15:14.821Z,0.50
2019-01-02T23:18:01.849Z,0.50
2019-01-02T23:20:54.141Z,0.50
2019-01-02T23:23:41.277Z,0.50
2019-01-02T23:26:28.355Z,0.40
2019-01-02T23:29:31.869Z,0.40
2019-01-02T23:32:22.926Z,0.40
2019-01-02T23:35:09.690Z,0.50
2019-01-02T23:38:09.133Z,0.50
2019-01-02T23:40:53.645Z,0.50
2019-01-02T23:43:44.925Z,0.50
2019-01-02T23:46:38.049Z,0.50
2019-01-02T23:49:24.853Z,0.40
2019-01-02T23:52:19.037Z,0.30
2019-01-02T23:55:05.857Z,0.40
2019-01-02T23:58:06.649Z,0.30
